createdAt,value
2023-02-11T00:01:56.521Z,25.30
2023-02-11T00:04:23.193Z,27.13
2023-02-11T00:06:56.615Z,26.23
2023-02-11T00:09:31.796Z,25.47
2023-02-11T00:15:16.507Z,23.30
2023-02-11T00:17:49.934Z,23.07
2023-02-11T00:20:52.065Z,25.83
2023-02-11T00:23:19.348Z,21.50
2023-02-11T00:28:28.550Z,23.30
2023-02-11T00:31:39.759Z,20.33
2023-02-11T00:34:06.561Z,20.80
2023-02-11T00:36:50.494Z,20.17
2023-02-11T00:39:20.284Z,21.70
2023-02-11T00:42:05.258Z,20.33
2023-02-11T00:44:38.756Z,19.60
2023-02-11T00:47:11.546Z,19.20
2023-02-11T00:49:56.322Z,17.77
2023-02-11T00:52:46.506Z,20.23
2023-02-11T00:55:30.038Z,16.03
2023-02-11T00:58:13.290Z,17.52
2023-02-11T01:00:40.414Z,17.97
2023-02-11T01:06:11.421Z,16.17
2023-02-11T01:08:45.602Z,15.27
2023-02-11T01:11:15.719Z,16.50
2023-02-11T01:13:49.547Z,14.37
2023-02-11T01:16:20.205Z,15.07
2023-02-11T01:18:54.577Z,14.00
2023-02-11T01:21:27.598Z,14.57
2023-02-11T01:24:00.575Z,14.87
2023-02-11T01:26:27.337Z,14.90
2023-02-11T01:29:02.000Z,14.90
2023-02-11T01:31:38.684Z,14.63
2023-02-11T01:34:14.553Z,13.32
2023-02-11T01:36:41.967Z,12.57
2023-02-11T01:39:15.523Z,12.87
2023-02-11T01:42:23.990Z,12.83
2023-02-11T01:45:04.515Z,12.13
2023-02-11T01:47:31.178Z,11.67
2023-02-11T01:50:11.575Z,12.18
2023-02-11T01:52:51.892Z,11.83
2023-02-11T01:55:46.693Z,12.17
2023-02-11T01:58:20.590Z,11.30
2023-02-11T02:00:56.885Z,12.52
2023-02-11T02:03:42.010Z,12.70
2023-02-11T02:06:43.590Z,12.05
2023-02-11T02:09:18.638Z,11.10
2023-02-11T02:11:55.570Z,11.23
2023-02-11T02:14:22.414Z,11.18
2023-02-11T02:20:27.511Z,11.02
2023-02-11T02:23:10.486Z,10.77
2023-02-11T02:26:16.504Z,10.68
2023-02-11T02:29:35.585Z,10.53
2023-02-11T02:32:52.564Z,9.53
2023-02-11T02:35:43.561Z,11.07
2023-02-11T02:38:26.654Z,9.60
2023-02-11T02:41:34.174Z,9.50
2023-02-11T02:44:21.610Z,10.33
2023-02-11T02:46:56.857Z,9.57
2023-02-11T02:50:05.102Z,10.52
2023-02-11T02:53:14.670Z,10.57
2023-02-11T02:56:22.202Z,11.13
2023-02-11T02:59:33.679Z,10.27
2023-02-11T03:03:10.523Z,9.95
2023-02-11T03:05:56.937Z,10.15
2023-02-11T03:08:33.604Z,10.05
2023-02-11T03:11:09.558Z,11.33
2023-02-11T03:13:45.536Z,11.35
2023-02-11T03:16:38.176Z,11.27
2023-02-11T03:19:51.528Z,11.35
2023-02-11T03:22:33.915Z,9.67
2023-02-11T03:25:11.567Z,10.23
2023-02-11T03:27:53.187Z,10.00
2023-02-11T03:30:39.574Z,11.27
2023-02-11T03:33:18.341Z,11.55
2023-02-11T03:36:06.594Z,10.68
2023-02-11T03:38:46.073Z,12.03
2023-02-11T03:44:30.586Z,12.07
2023-02-11T03:47:18.530Z,11.40
2023-02-11T03:49:56.922Z,12.20
2023-02-11T03:52:41.625Z,12.55
2023-02-11T03:55:21.361Z,11.60
2023-02-11T03:57:58.654Z,11.33
2023-02-11T04:00:41.214Z,12.40
2023-02-11T04:03:18.046Z,10.83
2023-02-11T04:05:48.565Z,11.90
2023-02-11T04:08:30.362Z,13.13
2023-02-11T04:10:57.112Z,12.13
2023-02-11T04:13:30.603Z,11.05
2023-02-11T04:15:57.225Z,11.70
2023-02-11T04:18:30.681Z,11.63
2023-02-11T04:20:57.338Z,12.40
2023-02-11T04:23:24.222Z,11.90
2023-02-11T04:25:57.571Z,10.57
2023-02-11T04:31:24.456Z,11.37
2023-02-11T04:33:51.322Z,11.47
2023-02-11T04:36:35.057Z,12.23
2023-02-11T04:39:01.924Z,11.43
2023-02-11T04:41:34.617Z,12.20
2023-02-11T04:44:21.606Z,10.90
2023-02-11T04:47:04.655Z,11.57
2023-02-11T04:49:51.669Z,11.03
2023-02-11T04:52:24.597Z,11.23
2023-02-11T04:54:51.436Z,11.67
2023-02-11T04:57:30.743Z,11.30
2023-02-11T04:59:57.433Z,10.70
2023-02-11T05:02:30.612Z,10.03
2023-02-11T05:05:02.278Z,11.27
2023-02-11T05:07:29.202Z,10.60
2023-02-11T05:10:04.753Z,11.13
2023-02-11T05:12:31.503Z,10.63
2023-02-11T05:15:04.689Z,11.53
2023-02-11T05:17:31.427Z,10.70
2023-02-11T05:20:04.646Z,10.93
2023-02-11T05:22:31.253Z,12.03
2023-02-11T05:25:12.165Z,12.23
2023-02-11T05:27:44.545Z,11.53
2023-02-11T05:30:20.087Z,11.87
2023-02-11T05:32:46.902Z,11.63
2023-02-11T05:35:26.426Z,10.97
2023-02-11T05:37:53.060Z,11.00
2023-02-11T05:40:29.551Z,12.17
2023-02-11T05:42:56.247Z,12.23
2023-02-11T05:45:41.588Z,12.75
2023-02-11T05:48:14.756Z,12.13
2023-02-11T05:50:43.999Z,13.20
2023-02-11T05:53:20.632Z,13.17
2023-02-11T05:55:56.187Z,13.10
2023-02-11T05:58:29.722Z,12.50
2023-02-11T06:01:03.552Z,13.37
2023-02-11T06:03:42.476Z,13.37
2023-02-11T06:06:23.225Z,14.47
2023-02-11T06:08:58.558Z,13.43
2023-02-11T06:11:27.809Z,12.93
2023-02-11T06:14:00.616Z,14.17
2023-02-11T06:16:30.244Z,14.57
2023-02-11T06:19:03.623Z,14.93
2023-02-11T06:24:59.756Z,15.03
2023-02-11T06:27:29.712Z,15.17
2023-02-11T06:30:03.647Z,15.83
2023-02-11T06:32:43.459Z,15.37
2023-02-11T06:35:30.112Z,16.07
2023-02-11T06:37:56.924Z,16.60
2023-02-11T06:40:33.020Z,16.73
2023-02-11T06:43:09.356Z,17.57
2023-02-11T06:45:50.095Z,17.37
2023-02-11T06:48:16.969Z,16.10
2023-02-11T06:50:49.689Z,17.17
2023-02-11T06:53:25.691Z,16.90
2023-02-11T06:55:52.787Z,17.13
2023-02-11T06:58:26.073Z,18.23
2023-02-11T07:00:57.815Z,18.70
2023-02-11T07:03:31.798Z,18.80
2023-02-11T07:06:02.956Z,17.58
2023-02-11T07:14:24.005Z,17.98
2023-02-11T07:16:50.587Z,19.50
2023-02-11T07:19:23.716Z,20.40
2023-02-11T07:22:16.482Z,19.77
2023-02-11T07:24:53.681Z,19.95
2023-02-11T07:27:30.870Z,19.10
2023-02-11T07:30:07.256Z,19.67
2023-02-11T07:32:34.146Z,21.08
2023-02-11T07:35:10.336Z,19.58
2023-02-11T07:37:37.215Z,21.15
2023-02-11T07:40:17.706Z,21.37
2023-02-11T07:42:44.394Z,20.27
2023-02-11T07:45:33.751Z,21.42
2023-02-11T07:48:13.661Z,21.70
2023-02-11T07:50:40.341Z,19.03
2023-02-11T07:53:13.802Z,22.60
2023-02-11T07:55:40.580Z,22.10
2023-02-11T07:58:16.679Z,21.13
2023-02-11T08:00:43.499Z,20.33
2023-02-11T08:03:30.086Z,21.53
2023-02-11T08:06:16.597Z,22.33
2023-02-11T08:08:49.747Z,21.10
2023-02-11T08:14:06.697Z,22.55
2023-02-11T08:19:30.566Z,21.20
2023-02-11T08:21:57.590Z,23.23
2023-02-11T08:24:30.685Z,22.10
2023-02-11T08:26:57.351Z,22.98
2023-02-11T08:29:36.764Z,22.48
2023-02-11T08:32:09.294Z,21.58
2023-02-11T08:34:44.664Z,21.35
2023-02-11T08:37:22.967Z,22.77
2023-02-11T08:39:58.722Z,22.67
2023-02-11T08:42:34.231Z,21.85
2023-02-11T08:45:18.859Z,22.83
2023-02-11T08:48:19.487Z,21.55
2023-02-11T08:50:59.719Z,22.20
2023-02-11T08:53:29.337Z,22.20
2023-02-11T08:55:56.073Z,22.77
2023-02-11T08:58:29.791Z,23.53
2023-02-11T09:00:59.624Z,22.52
2023-02-11T09:03:43.868Z,21.60
2023-02-11T09:06:12.330Z,22.08
2023-02-11T09:08:48.785Z,21.85
2023-02-11T09:11:48.342Z,23.58
2023-02-11T09:14:27.742Z,22.05
2023-02-11T09:16:57.867Z,22.52
2023-02-11T09:19:31.743Z,21.10
2023-02-11T09:21:59.161Z,22.13
2023-02-11T09:24:32.724Z,23.13
2023-02-11T09:26:59.642Z,22.63
2023-02-11T09:29:33.790Z,23.20
2023-02-11T09:32:30.790Z,21.73
2023-02-11T09:35:03.934Z,24.05
2023-02-11T09:37:35.127Z,22.60
2023-02-11T09:43:27.548Z,20.58
2023-02-11T09:46:07.844Z,21.35
2023-02-11T09:48:51.112Z,21.92
2023-02-11T09:51:40.836Z,21.63
2023-02-11T09:54:27.846Z,21.23
2023-02-11T09:57:00.798Z,20.65
2023-02-11T09:59:36.013Z,21.80
2023-02-11T10:02:27.588Z,21.02
2023-02-11T10:04:57.454Z,21.10
2023-02-11T10:07:57.834Z,20.65
2023-02-11T10:10:51.113Z,20.98
2023-02-11T10:13:49.748Z,21.70
2023-02-11T10:17:03.801Z,21.90
2023-02-11T10:19:49.764Z,21.38
2023-02-11T10:22:31.780Z,22.23
2023-02-11T10:27:51.937Z,20.52
2023-02-11T10:31:10.397Z,22.25
2023-02-11T10:34:10.792Z,21.65
2023-02-11T10:36:45.183Z,22.90
2023-02-11T10:39:24.751Z,21.83
2023-02-11T10:42:24.060Z,21.13
2023-02-11T10:45:14.760Z,22.38
2023-02-11T10:47:55.812Z,20.80
2023-02-11T10:50:31.290Z,22.45
2023-02-11T10:53:42.842Z,21.48
2023-02-11T10:56:14.097Z,19.95
2023-02-11T10:59:30.877Z,20.58
2023-02-11T11:02:01.550Z,21.92
2023-02-11T11:04:38.866Z,21.98
2023-02-11T11:07:18.152Z,21.13
2023-02-11T11:09:55.875Z,21.10
2023-02-11T11:12:45.327Z,21.67
2023-02-11T11:15:29.039Z,22.45
2023-02-11T11:18:23.366Z,21.67
2023-02-11T11:21:14.808Z,21.92
2023-02-11T11:23:48.765Z,20.05
2023-02-11T11:26:27.085Z,20.95
2023-02-11T11:29:16.676Z,21.42
2023-02-11T11:32:06.025Z,19.98
2023-02-11T11:34:38.362Z,18.27
2023-02-11T11:40:25.480Z,19.25
2023-02-11T11:43:25.832Z,20.77
2023-02-11T11:46:00.545Z,20.60
2023-02-11T11:48:41.920Z,21.55
2023-02-11T11:51:36.084Z,20.92
2023-02-11T11:54:06.813Z,21.27
2023-02-11T11:57:29.247Z,20.85
2023-02-11T12:00:06.773Z,20.58
2023-02-11T12:03:19.883Z,20.30
2023-02-11T12:06:12.163Z,20.27
2023-02-11T12:09:30.823Z,20.38
2023-02-11T12:12:54.516Z,18.80
2023-02-11T12:15:38.832Z,19.67
2023-02-11T12:18:26.130Z,20.08
2023-02-11T12:21:09.902Z,20.17
2023-02-11T12:24:20.227Z,17.80
2023-02-11T12:27:14.052Z,17.30
2023-02-11T12:30:08.934Z,16.40
2023-02-11T12:33:02.846Z,12.68
2023-02-11T12:36:08.862Z,13.02
2023-02-11T12:39:19.844Z,11.98
2023-02-11T12:42:30.814Z,12.48
2023-02-11T12:45:29.267Z,12.23
2023-02-11T12:48:39.941Z,12.25
2023-02-11T12:51:31.823Z,10.82
2023-02-11T12:54:46.363Z,11.65
2023-02-11T12:57:32.784Z,9.98
2023-02-11T13:00:25.068Z,9.27
2023-02-11T13:03:43.155Z,8.38
2023-02-11T13:06:15.729Z,9.15
2023-02-11T13:09:02.851Z,9.93
2023-02-11T13:11:52.092Z,9.65
2023-02-11T13:14:35.853Z,9.75
2023-02-11T13:17:12.046Z,9.15
2023-02-11T13:19:56.953Z,8.85
2023-02-11T13:22:48.479Z,7.25
2023-02-11T13:26:13.194Z,7.28
2023-02-11T13:28:54.398Z,6.85
2023-02-11T13:31:28.080Z,6.60
2023-02-11T13:33:54.950Z,6.20
2023-02-11T13:36:32.994Z,6.32
2023-02-11T13:39:06.466Z,6.38
2023-02-11T13:41:43.742Z,5.97
2023-02-11T13:44:10.327Z,6.90
2023-02-11T13:47:08.894Z,5.65
2023-02-11T13:49:53.030Z,5.75
2023-02-11T13:52:37.890Z,5.47
2023-02-11T13:55:16.414Z,5.75
2023-02-11T13:57:52.345Z,5.32
2023-02-11T14:00:34.213Z,5.65
2023-02-11T14:03:45.074Z,5.63
2023-02-11T14:06:54.284Z,5.60
2023-02-11T14:09:29.990Z,5.78
2023-02-11T14:12:32.030Z,5.85
2023-02-11T14:15:20.812Z,5.78
2023-02-11T14:17:47.748Z,5.50
2023-02-11T14:20:50.255Z,5.40
2023-02-11T14:23:30.984Z,5.60
2023-02-11T14:26:31.928Z,5.60
2023-02-11T14:29:17.127Z,5.35
2023-02-11T14:31:58.185Z,5.00
2023-02-11T14:34:53.904Z,4.70
2023-02-11T14:38:17.913Z,4.72
2023-02-11T14:41:25.923Z,4.70
2023-02-11T14:43:57.940Z,4.57
2023-02-11T14:46:57.007Z,4.18
2023-02-11T14:49:42.733Z,4.22
2023-02-11T14:52:40.366Z,4.97
2023-02-11T14:55:33.352Z,4.50
2023-02-11T14:58:18.918Z,4.20
2023-02-11T15:00:50.516Z,4.32
2023-02-11T15:03:36.925Z,4.75
2023-02-11T15:06:08.215Z,4.53
2023-02-11T15:08:44.921Z,4.45
2023-02-11T15:11:14.520Z,4.63
2023-02-11T15:13:55.568Z,4.45
2023-02-11T15:16:28.700Z,4.85
2023-02-11T15:19:07.825Z,5.18
2023-02-11T15:21:36.379Z,5.20
2023-02-11T15:24:30.976Z,5.00
2023-02-11T15:27:04.957Z,4.75
2023-02-11T15:29:46.966Z,4.50
2023-02-11T15:32:29.976Z,4.40
2023-02-11T15:35:05.065Z,4.82
2023-02-11T15:37:31.934Z,4.47
2023-02-11T15:40:22.858Z,4.72
2023-02-11T15:43:00.409Z,4.75
2023-02-11T15:45:54.989Z,4.72
2023-02-11T15:48:37.885Z,4.88
2023-02-11T15:51:36.963Z,4.18
2023-02-11T15:54:23.935Z,4.43
2023-02-11T15:56:58.976Z,4.07
2023-02-11T15:59:41.962Z,4.30
2023-02-11T16:02:17.062Z,4.15
2023-02-11T16:04:59.941Z,4.00
2023-02-11T16:07:56.956Z,4.13
2023-02-11T16:10:35.569Z,4.28
2023-02-11T16:13:24.949Z,4.50
2023-02-11T16:16:17.191Z,4.03
2023-02-11T16:19:25.690Z,4.25
2023-02-11T16:22:01.920Z,4.35
2023-02-11T16:24:40.094Z,3.83
2023-02-11T16:27:29.930Z,3.90
2023-02-11T16:30:03.865Z,4.13
2023-02-11T16:32:31.223Z,4.03
2023-02-11T16:35:06.961Z,4.38
2023-02-11T16:37:41.970Z,4.30
2023-02-11T16:40:09.954Z,4.05
2023-02-11T16:42:42.933Z,4.10
2023-02-11T16:45:32.985Z,3.80
2023-02-11T16:48:15.046Z,3.92
2023-02-11T16:50:46.460Z,3.85
2023-02-11T16:53:23.960Z,4.45
2023-02-11T16:56:06.083Z,4.72
2023-02-11T16:58:40.958Z,4.05
2023-02-11T17:01:07.875Z,4.22
2023-02-11T17:03:47.973Z,4.70
2023-02-11T17:06:18.034Z,4.25
2023-02-11T17:08:50.967Z,4.50
2023-02-11T17:11:23.645Z,4.43
2023-02-11T17:13:56.972Z,3.80
2023-02-11T17:16:32.012Z,4.18
2023-02-11T17:18:58.876Z,4.45
2023-02-11T17:21:44.052Z,4.70
2023-02-11T17:24:11.478Z,5.10
2023-02-11T17:26:56.891Z,4.88
2023-02-11T17:29:28.278Z,5.15
2023-02-11T17:32:20.345Z,5.20
2023-02-11T17:34:47.086Z,5.70
2023-02-11T17:37:20.034Z,5.50
2023-02-11T17:39:46.672Z,4.80
2023-02-11T17:42:21.000Z,5.13
2023-02-11T17:44:47.729Z,4.97
2023-02-11T17:47:27.979Z,4.88
2023-02-11T17:49:54.627Z,5.13
2023-02-11T17:52:28.021Z,4.93
2023-02-11T17:55:02.034Z,4.82
2023-02-11T17:57:28.741Z,5.13
2023-02-11T18:00:02.462Z,5.53
2023-02-11T18:02:29.140Z,5.53
2023-02-11T18:05:04.022Z,5.72
2023-02-11T18:07:30.777Z,5.68
2023-02-11T18:10:03.932Z,5.40
2023-02-11T18:12:33.110Z,5.30
2023-02-11T18:15:06.026Z,5.55
2023-02-11T18:17:35.082Z,5.28
2023-02-11T18:20:14.405Z,5.20
2023-02-11T18:22:41.648Z,6.07
2023-02-11T18:25:20.295Z,5.82
2023-02-11T18:27:48.929Z,5.57
2023-02-11T18:30:25.194Z,5.93
2023-02-11T18:32:56.357Z,5.80
2023-02-11T18:35:30.278Z,5.70
2023-02-11T18:37:57.062Z,6.07
2023-02-11T18:40:23.812Z,5.88
2023-02-11T18:42:57.225Z,5.10
2023-02-11T18:45:31.531Z,5.32
2023-02-11T18:48:13.938Z,5.78
2023-02-11T18:50:53.946Z,6.38
2023-02-11T18:53:27.968Z,5.65
2023-02-11T18:55:55.171Z,6.53
2023-02-11T18:58:29.045Z,5.90
2023-02-11T19:01:02.234Z,6.20
2023-02-11T19:03:45.063Z,6.28
2023-02-11T19:06:17.564Z,6.35
2023-02-11T19:08:54.206Z,6.88
2023-02-11T19:11:41.805Z,6.35
2023-02-11T19:14:17.126Z,6.78
2023-02-11T19:16:47.732Z,7.07
2023-02-11T19:19:35.066Z,6.63
2023-02-11T19:22:21.239Z,7.07
2023-02-11T19:25:00.169Z,7.13
2023-02-11T19:27:35.778Z,7.00
2023-02-11T19:30:02.877Z,7.00
2023-02-11T19:32:37.031Z,6.70
2023-02-11T19:35:05.506Z,5.90
2023-02-11T19:37:39.038Z,6.03
2023-02-11T19:40:06.611Z,6.07
2023-02-11T19:42:40.048Z,6.03
2023-02-11T19:45:27.192Z,6.10
2023-02-11T19:48:04.112Z,5.85
2023-02-11T19:50:37.606Z,5.93
2023-02-11T19:53:11.105Z,5.47
2023-02-11T19:55:37.775Z,5.88
2023-02-11T19:58:11.178Z,5.82
2023-02-11T20:00:40.565Z,5.90
2023-02-11T20:03:14.034Z,6.03
2023-02-11T20:05:56.234Z,6.10
2023-02-11T20:08:22.969Z,5.82
2023-02-11T20:10:59.031Z,6.38
2023-02-11T20:13:25.742Z,5.72
2023-02-11T20:15:59.035Z,5.82
2023-02-11T20:18:32.089Z,5.90
2023-02-11T20:21:08.061Z,6.40
2023-02-11T20:23:35.548Z,5.60
2023-02-11T20:26:32.511Z,5.85
2023-02-11T20:29:09.044Z,6.03
2023-02-11T20:31:53.155Z,6.40
2023-02-11T20:34:21.405Z,6.72
2023-02-11T20:37:04.109Z,6.20
2023-02-11T20:39:31.077Z,7.05
2023-02-11T20:42:04.993Z,6.30
2023-02-11T20:44:32.029Z,6.15
2023-02-11T20:47:12.094Z,6.82
2023-02-11T20:49:38.766Z,6.95
2023-02-11T20:52:20.926Z,7.28
2023-02-11T20:57:31.133Z,6.15
2023-02-11T21:00:04.071Z,6.25
2023-02-11T21:02:30.691Z,6.63
2023-02-11T21:05:07.639Z,6.93
2023-02-11T21:07:39.100Z,6.78
2023-02-11T21:10:13.496Z,6.57
2023-02-11T21:12:42.353Z,7.35
2023-02-11T21:15:16.208Z,6.35
2023-02-11T21:17:45.391Z,6.75
2023-02-11T21:20:19.133Z,6.72
2023-02-11T21:22:45.791Z,7.35
2023-02-11T21:25:12.508Z,6.95
2023-02-11T21:27:49.427Z,6.90
2023-02-11T21:30:19.510Z,7.10
2023-02-11T21:32:56.204Z,7.30
2023-02-11T21:35:29.187Z,7.53
2023-02-11T21:38:03.081Z,7.35
2023-02-11T21:40:33.267Z,8.27
2023-02-11T21:43:06.126Z,8.15
2023-02-11T21:45:49.100Z,7.55
2023-02-11T21:48:30.126Z,8.73
2023-02-11T21:50:56.728Z,8.20
2023-02-11T21:53:32.764Z,8.48
2023-02-11T21:56:07.720Z,7.88
2023-02-11T21:58:51.708Z,7.82
2023-02-11T22:01:21.830Z,8.27
2023-02-11T22:04:20.387Z,8.20
2023-02-11T22:06:47.114Z,7.90
2023-02-11T22:09:13.824Z,8.32
2023-02-11T22:11:58.492Z,9.15
2023-02-11T22:14:32.499Z,9.15
2023-02-11T22:17:08.461Z,10.32
2023-02-11T22:19:42.152Z,9.63
2023-02-11T22:22:18.428Z,9.90
2023-02-11T22:24:55.116Z,10.88
2023-02-11T22:27:29.069Z,10.60
2023-02-11T22:29:55.791Z,11.88
2023-02-11T22:32:34.081Z,10.95
2023-02-11T22:35:00.687Z,10.90
2023-02-11T22:37:37.301Z,11.85
2023-02-11T22:40:04.855Z,12.05
2023-02-11T22:42:34.286Z,13.10
2023-02-11T22:45:07.204Z,12.00
2023-02-11T22:47:54.948Z,12.32
2023-02-11T22:50:22.607Z,13.00
2023-02-11T22:52:56.148Z,13.45
2023-02-11T22:55:24.100Z,13.85
2023-02-11T22:57:54.027Z,12.60
2023-02-11T23:00:31.244Z,13.32
2023-02-11T23:02:58.081Z,14.15
2023-02-11T23:05:31.424Z,13.18
2023-02-11T23:07:58.162Z,14.23
2023-02-11T23:10:34.211Z,14.18
2023-02-11T23:13:00.836Z,13.13
2023-02-11T23:15:38.181Z,13.48
2023-02-11T23:18:05.435Z,13.20
2023-02-11T23:20:41.086Z,13.27
2023-02-11T23:23:08.497Z,14.40
2023-02-11T23:25:49.097Z,14.43
2023-02-11T23:28:18.629Z,13.55
2023-02-11T23:30:59.141Z,13.68
2023-02-11T23:33:32.142Z,13.95
2023-02-11T23:36:00.632Z,14.80
2023-02-11T23:38:37.096Z,14.13
2023-02-11T23:41:13.690Z,14.63
2023-02-11T23:43:47.118Z,14.13
2023-02-11T23:46:22.540Z,14.40
2023-02-11T23:49:03.979Z,14.52
2023-02-11T23:51:38.115Z,13.20
2023-02-11T23:54:11.125Z,13.63
2023-02-11T23:56:52.616Z,13.68
2023-02-11T23:59:28.452Z,13.70
